sensor_id;sensor_type;location;lat;lon;timestamp;temperature;humidity
32296;DHT22;18781;51.550;5.418;2022-12-07T00:01:19;8.30;72.10
32296;DHT22;18781;51.550;5.418;2022-12-07T00:03:46;8.30;72.20
32296;DHT22;18781;51.550;5.418;2022-12-07T00:06:14;8.30;72.10
32296;DHT22;18781;51.550;5.418;2022-12-07T00:08:40;8.20;72.10
32296;DHT22;18781;51.550;5.418;2022-12-07T00:11:08;8.20;72.00
32296;DHT22;18781;51.550;5.418;2022-12-07T00:13:35;8.20;72.10
32296;DHT22;18781;51.550;5.418;2022-12-07T00:16:02;8.20;72.10
32296;DHT22;18781;51.550;5.418;2022-12-07T00:18:28;8.10;72.00
32296;DHT22;18781;51.550;5.418;2022-12-07T00:21:09;8.10;72.00
32296;DHT22;18781;51.550;5.418;2022-12-07T00:23:35;8.10;72.00
32296;DHT22;18781;51.550;5.418;2022-12-07T00:26:15;8.10;72.00
32296;DHT22;18781;51.550;5.418;2022-12-07T00:28:46;8.00;72.00
32296;DHT22;18781;51.550;5.418;2022-12-07T00:31:13;8.00;72.00
32296;DHT22;18781;51.550;5.418;2022-12-07T00:33:39;8.00;72.00
32296;DHT22;18781;51.550;5.418;2022-12-07T00:36:07;8.00;72.10
32296;DHT22;18781;51.550;5.418;2022-12-07T00:38:34;8.00;72.20
32296;DHT22;18781;51.550;5.418;2022-12-07T00:41:05;7.90;72.20
32296;DHT22;18781;51.550;5.418;2022-12-07T00:43:31;7.90;72.20
32296;DHT22;18781;51.550;5.418;2022-12-07T00:45:57;7.90;72.20
32296;DHT22;18781;51.550;5.418;2022-12-07T00:48:23;7.90;72.30
32296;DHT22;18781;51.550;5.418;2022-12-07T00:50:49;7.90;72.30
32296;DHT22;18781;51.550;5.418;2022-12-07T00:53:15;7.90;72.30
32296;DHT22;18781;51.550;5.418;2022-12-07T00:55:41;7.90;72.30
32296;DHT22;18781;51.550;5.418;2022-12-07T00:58:07;7.80;72.20
32296;DHT22;18781;51.550;5.418;2022-12-07T01:00:34;7.80;72.20
32296;DHT22;18781;51.550;5.418;2022-12-07T01:03:00;7.80;72.20
32296;DHT22;18781;51.550;5.418;2022-12-07T01:05:26;7.80;72.30
32296;DHT22;18781;51.550;5.418;2022-12-07T01:07:51;7.80;72.30
32296;DHT22;18781;51.550;5.418;2022-12-07T01:10:17;7.70;72.20
32296;DHT22;18781;51.550;5.418;2022-12-07T01:12:43;7.70;72.30
32296;DHT22;18781;51.550;5.418;2022-12-07T01:15:09;7.70;72.30
32296;DHT22;18781;51.550;5.418;2022-12-07T01:17:34;7.70;72.40
32296;DHT22;18781;51.550;5.418;2022-12-07T01:20:00;7.70;72.40
32296;DHT22;18781;51.550;5.418;2022-12-07T01:22:26;7.70;72.40
32296;DHT22;18781;51.550;5.418;2022-12-07T01:24:52;7.70;72.40
32296;DHT22;18781;51.550;5.418;2022-12-07T01:27:17;7.60;72.40
32296;DHT22;18781;51.550;5.418;2022-12-07T01:29:43;7.60;72.50
32296;DHT22;18781;51.550;5.418;2022-12-07T01:32:08;7.60;72.60
32296;DHT22;18781;51.550;5.418;2022-12-07T01:34:34;7.60;72.60
32296;DHT22;18781;51.550;5.418;2022-12-07T01:37:00;7.60;72.70
32296;DHT22;18781;51.550;5.418;2022-12-07T01:39:25;7.60;72.70
32296;DHT22;18781;51.550;5.418;2022-12-07T01:41:52;7.60;72.90
32296;DHT22;18781;51.550;5.418;2022-12-07T01:44:26;7.60;73.00
32296;DHT22;18781;51.550;5.418;2022-12-07T01:47:00;7.60;73.30
32296;DHT22;18781;51.550;5.418;2022-12-07T01:49:36;7.60;73.40
32296;DHT22;18781;51.550;5.418;2022-12-07T01:54:44;7.60;73.70
32296;DHT22;18781;51.550;5.418;2022-12-07T01:57:12;7.60;73.40
32296;DHT22;18781;51.550;5.418;2022-12-07T01:59:39;7.60;73.40
32296;DHT22;18781;51.550;5.418;2022-12-07T02:02:08;7.60;73.40
32296;DHT22;18781;51.550;5.418;2022-12-07T02:04:36;7.70;73.40
32296;DHT22;18781;51.550;5.418;2022-12-07T02:07:03;7.70;73.20
32296;DHT22;18781;51.550;5.418;2022-12-07T02:09:29;7.70;73.20
32296;DHT22;18781;51.550;5.418;2022-12-07T02:11:54;7.60;73.10
32296;DHT22;18781;51.550;5.418;2022-12-07T02:14:21;7.60;73.10
32296;DHT22;18781;51.550;5.418;2022-12-07T02:28:29;7.60;73.20
32296;DHT22;18781;51.550;5.418;2022-12-07T02:31:01;7.50;73.00
32296;DHT22;18781;51.550;5.418;2022-12-07T02:33:44;7.60;72.90
32296;DHT22;18781;51.550;5.418;2022-12-07T02:36:18;7.50;73.00
32296;DHT22;18781;51.550;5.418;2022-12-07T02:39:00;7.50;73.10
32296;DHT22;18781;51.550;5.418;2022-12-07T02:41:31;7.50;73.00
32296;DHT22;18781;51.550;5.418;2022-12-07T02:44:03;7.50;72.90
32296;DHT22;18781;51.550;5.418;2022-12-07T02:46:36;7.50;72.90
32296;DHT22;18781;51.550;5.418;2022-12-07T02:49:03;7.50;73.00
32296;DHT22;18781;51.550;5.418;2022-12-07T02:51:32;7.50;73.00
32296;DHT22;18781;51.550;5.418;2022-12-07T02:53:59;7.50;73.10
32296;DHT22;18781;51.550;5.418;2022-12-07T02:56:30;7.50;73.10
32296;DHT22;18781;51.550;5.418;2022-12-07T02:59:17;7.50;73.10
32296;DHT22;18781;51.550;5.418;2022-12-07T03:07:22;7.40;73.30
32296;DHT22;18781;51.550;5.418;2022-12-07T03:13:10;7.40;73.80
32296;DHT22;18781;51.550;5.418;2022-12-07T03:15:46;7.40;73.20
32296;DHT22;18781;51.550;5.418;2022-12-07T03:18:19;7.40;73.20
32296;DHT22;18781;51.550;5.418;2022-12-07T03:20:48;7.40;73.20
32296;DHT22;18781;51.550;5.418;2022-12-07T03:23:16;7.40;73.20
32296;DHT22;18781;51.550;5.418;2022-12-07T03:25:47;7.40;73.10
32296;DHT22;18781;51.550;5.418;2022-12-07T03:28:17;7.40;73.10
32296;DHT22;18781;51.550;5.418;2022-12-07T03:30:51;7.40;73.10
32296;DHT22;18781;51.550;5.418;2022-12-07T03:33:27;7.40;73.10
32296;DHT22;18781;51.550;5.418;2022-12-07T03:36:11;7.40;73.20
32296;DHT22;18781;51.550;5.418;2022-12-07T03:38:55;7.30;73.20
32296;DHT22;18781;51.550;5.418;2022-12-07T03:41:25;7.30;73.20
32296;DHT22;18781;51.550;5.418;2022-12-07T03:43:53;7.40;73.20
32296;DHT22;18781;51.550;5.418;2022-12-07T03:49:42;7.30;73.50
32296;DHT22;18781;51.550;5.418;2022-12-07T03:52:18;7.30;73.30
32296;DHT22;18781;51.550;5.418;2022-12-07T03:54:53;7.30;73.50
32296;DHT22;18781;51.550;5.418;2022-12-07T03:57:21;7.30;73.70
32296;DHT22;18781;51.550;5.418;2022-12-07T03:59:48;7.30;73.70
32296;DHT22;18781;51.550;5.418;2022-12-07T04:02:14;7.30;73.70
32296;DHT22;18781;51.550;5.418;2022-12-07T04:04:42;7.40;73.80
32296;DHT22;18781;51.550;5.418;2022-12-07T04:07:08;7.40;73.80
32296;DHT22;18781;51.550;5.418;2022-12-07T04:09:33;7.40;73.70
32296;DHT22;18781;51.550;5.418;2022-12-07T04:11:59;7.40;73.80
32296;DHT22;18781;51.550;5.418;2022-12-07T04:14:24;7.40;73.80
32296;DHT22;18781;51.550;5.418;2022-12-07T04:16:52;7.40;73.80
32296;DHT22;18781;51.550;5.418;2022-12-07T04:19:20;7.40;73.80
32296;DHT22;18781;51.550;5.418;2022-12-07T04:21:46;7.40;73.80
32296;DHT22;18781;51.550;5.418;2022-12-07T04:24:13;7.40;73.80
32296;DHT22;18781;51.550;5.418;2022-12-07T04:26:39;7.40;73.80
32296;DHT22;18781;51.550;5.418;2022-12-07T04:29:04;7.40;73.80
32296;DHT22;18781;51.550;5.418;2022-12-07T04:31:30;7.50;73.90
32296;DHT22;18781;51.550;5.418;2022-12-07T04:33:55;7.50;74.00
32296;DHT22;18781;51.550;5.418;2022-12-07T04:36:21;7.50;73.90
32296;DHT22;18781;51.550;5.418;2022-12-07T04:38:47;7.50;74.00
32296;DHT22;18781;51.550;5.418;2022-12-07T04:41:13;7.50;74.00
32296;DHT22;18781;51.550;5.418;2022-12-07T04:43:38;7.50;74.00
32296;DHT22;18781;51.550;5.418;2022-12-07T04:46:04;7.50;74.10
32296;DHT22;18781;51.550;5.418;2022-12-07T04:48:30;7.50;74.00
32296;DHT22;18781;51.550;5.418;2022-12-07T04:50:55;7.50;73.90
32296;DHT22;18781;51.550;5.418;2022-12-07T04:53:21;7.60;74.00
32296;DHT22;18781;51.550;5.418;2022-12-07T04:55:47;7.60;73.90
32296;DHT22;18781;51.550;5.418;2022-12-07T04:58:13;7.60;73.80
32296;DHT22;18781;51.550;5.418;2022-12-07T05:00:39;7.60;73.80
32296;DHT22;18781;51.550;5.418;2022-12-07T05:03:05;7.60;73.70
32296;DHT22;18781;51.550;5.418;2022-12-07T05:05:31;7.60;73.60
32296;DHT22;18781;51.550;5.418;2022-12-07T05:07:56;7.60;73.70
32296;DHT22;18781;51.550;5.418;2022-12-07T05:10:22;7.60;73.60
32296;DHT22;18781;51.550;5.418;2022-12-07T05:12:48;7.60;73.60
32296;DHT22;18781;51.550;5.418;2022-12-07T05:15:16;7.60;73.60
32296;DHT22;18781;51.550;5.418;2022-12-07T05:17:42;7.50;73.50
32296;DHT22;18781;51.550;5.418;2022-12-07T05:20:09;7.50;73.50
32296;DHT22;18781;51.550;5.418;2022-12-07T05:22:35;7.50;73.40
32296;DHT22;18781;51.550;5.418;2022-12-07T05:25:01;7.50;73.40
32296;DHT22;18781;51.550;5.418;2022-12-07T05:27:27;7.50;73.40
32296;DHT22;18781;51.550;5.418;2022-12-07T05:29:52;7.50;73.90
32296;DHT22;18781;51.550;5.418;2022-12-07T05:32:18;7.50;73.40
32296;DHT22;18781;51.550;5.418;2022-12-07T05:34:44;7.50;73.40
32296;DHT22;18781;51.550;5.418;2022-12-07T05:37:09;7.50;73.30
32296;DHT22;18781;51.550;5.418;2022-12-07T05:39:35;7.50;73.30
32296;DHT22;18781;51.550;5.418;2022-12-07T05:42:00;7.50;73.30
32296;DHT22;18781;51.550;5.418;2022-12-07T05:44:45;7.40;73.30
32296;DHT22;18781;51.550;5.418;2022-12-07T05:47:12;7.50;73.30
32296;DHT22;18781;51.550;5.418;2022-12-07T05:49:38;7.40;73.20
32296;DHT22;18781;51.550;5.418;2022-12-07T05:52:04;7.40;73.10
32296;DHT22;18781;51.550;5.418;2022-12-07T05:54:30;7.40;73.10
32296;DHT22;18781;51.550;5.418;2022-12-07T05:56:56;7.40;73.10
32296;DHT22;18781;51.550;5.418;2022-12-07T05:59:21;7.30;73.00
32296;DHT22;18781;51.550;5.418;2022-12-07T06:01:52;7.30;73.00
32296;DHT22;18781;51.550;5.418;2022-12-07T06:04:18;7.30;73.00
32296;DHT22;18781;51.550;5.418;2022-12-07T06:06:44;7.30;72.90
32296;DHT22;18781;51.550;5.418;2022-12-07T06:09:10;7.30;72.80
32296;DHT22;18781;51.550;5.418;2022-12-07T06:11:36;7.20;72.80
32296;DHT22;18781;51.550;5.418;2022-12-07T06:14:19;7.20;72.80
32296;DHT22;18781;51.550;5.418;2022-12-07T06:16:45;7.20;72.80
32296;DHT22;18781;51.550;5.418;2022-12-07T06:19:11;7.20;72.80
32296;DHT22;18781;51.550;5.418;2022-12-07T06:21:36;7.20;72.80
32296;DHT22;18781;51.550;5.418;2022-12-07T06:24:02;7.10;72.80
32296;DHT22;18781;51.550;5.418;2022-12-07T06:26:28;7.10;72.80
32296;DHT22;18781;51.550;5.418;2022-12-07T06:28:53;7.10;72.80
32296;DHT22;18781;51.550;5.418;2022-12-07T06:31:20;7.10;72.90
32296;DHT22;18781;51.550;5.418;2022-12-07T06:33:46;7.00;72.90
32296;DHT22;18781;51.550;5.418;2022-12-07T06:36:11;7.00;73.00
32296;DHT22;18781;51.550;5.418;2022-12-07T06:38:37;7.00;73.20
32296;DHT22;18781;51.550;5.418;2022-12-07T06:41:03;7.00;73.30
32296;DHT22;18781;51.550;5.418;2022-12-07T06:43:29;7.00;73.30
32296;DHT22;18781;51.550;5.418;2022-12-07T06:45:54;7.00;73.40
32296;DHT22;18781;51.550;5.418;2022-12-07T06:48:20;7.00;73.50
32296;DHT22;18781;51.550;5.418;2022-12-07T06:50:46;7.00;73.60
32296;DHT22;18781;51.550;5.418;2022-12-07T06:53:12;7.00;73.60
32296;DHT22;18781;51.550;5.418;2022-12-07T06:55:37;7.00;73.60
32296;DHT22;18781;51.550;5.418;2022-12-07T06:58:03;7.00;73.70
32296;DHT22;18781;51.550;5.418;2022-12-07T07:00:29;7.00;73.70
32296;DHT22;18781;51.550;5.418;2022-12-07T07:02:55;7.00;73.70
32296;DHT22;18781;51.550;5.418;2022-12-07T07:05:21;7.00;73.60
32296;DHT22;18781;51.550;5.418;2022-12-07T07:07:50;7.00;73.60
32296;DHT22;18781;51.550;5.418;2022-12-07T07:10:15;7.00;73.60
32296;DHT22;18781;51.550;5.418;2022-12-07T07:12:41;7.00;73.60
32296;DHT22;18781;51.550;5.418;2022-12-07T07:15:07;7.00;73.60
32296;DHT22;18781;51.550;5.418;2022-12-07T07:17:32;7.00;73.60
32296;DHT22;18781;51.550;5.418;2022-12-07T07:19:58;7.00;73.60
32296;DHT22;18781;51.550;5.418;2022-12-07T07:22:24;7.00;73.60
32296;DHT22;18781;51.550;5.418;2022-12-07T07:24:49;7.00;73.60
32296;DHT22;18781;51.550;5.418;2022-12-07T07:27:15;7.00;73.60
32296;DHT22;18781;51.550;5.418;2022-12-07T07:29:40;7.00;73.60
32296;DHT22;18781;51.550;5.418;2022-12-07T07:32:06;7.00;73.60
32296;DHT22;18781;51.550;5.418;2022-12-07T07:34:33;7.00;73.60
32296;DHT22;18781;51.550;5.418;2022-12-07T07:36:58;7.00;73.60
32296;DHT22;18781;51.550;5.418;2022-12-07T07:39:24;7.00;73.70
32296;DHT22;18781;51.550;5.418;2022-12-07T07:41:50;7.00;73.70
32296;DHT22;18781;51.550;5.418;2022-12-07T07:44:15;7.00;73.70
32296;DHT22;18781;51.550;5.418;2022-12-07T07:46:41;7.00;73.70
32296;DHT22;18781;51.550;5.418;2022-12-07T07:49:06;7.00;73.80
32296;DHT22;18781;51.550;5.418;2022-12-07T07:51:32;7.00;73.80
32296;DHT22;18781;51.550;5.418;2022-12-07T07:53:57;7.00;73.80
32296;DHT22;18781;51.550;5.418;2022-12-07T07:56:23;7.00;73.80
32296;DHT22;18781;51.550;5.418;2022-12-07T07:58:52;7.00;73.80
32296;DHT22;18781;51.550;5.418;2022-12-07T08:01:17;7.00;73.90
32296;DHT22;18781;51.550;5.418;2022-12-07T08:03:45;7.00;73.90
32296;DHT22;18781;51.550;5.418;2022-12-07T08:06:11;7.10;73.90
32296;DHT22;18781;51.550;5.418;2022-12-07T08:08:37;7.10;73.80
32296;DHT22;18781;51.550;5.418;2022-12-07T08:11:05;7.00;73.70
32296;DHT22;18781;51.550;5.418;2022-12-07T08:13:31;7.00;73.60
32296;DHT22;18781;51.550;5.418;2022-12-07T08:15:56;7.10;73.60
32296;DHT22;18781;51.550;5.418;2022-12-07T08:18:22;7.10;73.60
32296;DHT22;18781;51.550;5.418;2022-12-07T08:20:48;7.00;73.60
32296;DHT22;18781;51.550;5.418;2022-12-07T08:23:13;7.00;73.50
32296;DHT22;18781;51.550;5.418;2022-12-07T08:25:39;7.00;73.60
32296;DHT22;18781;51.550;5.418;2022-12-07T08:28:05;7.00;73.50
32296;DHT22;18781;51.550;5.418;2022-12-07T08:30:31;7.00;73.60
32296;DHT22;18781;51.550;5.418;2022-12-07T08:32:57;7.00;73.60
32296;DHT22;18781;51.550;5.418;2022-12-07T08:35:23;7.00;73.70
32296;DHT22;18781;51.550;5.418;2022-12-07T08:37:48;7.10;73.90
32296;DHT22;18781;51.550;5.418;2022-12-07T08:40:14;7.10;74.00
32296;DHT22;18781;51.550;5.418;2022-12-07T08:42:42;7.10;74.10
32296;DHT22;18781;51.550;5.418;2022-12-07T08:45:12;7.10;74.30
32296;DHT22;18781;51.550;5.418;2022-12-07T08:47:41;7.20;74.40
32296;DHT22;18781;51.550;5.418;2022-12-07T08:50:10;7.20;74.50
32296;DHT22;18781;51.550;5.418;2022-12-07T08:52:37;7.20;74.40
32296;DHT22;18781;51.550;5.418;2022-12-07T08:55:03;7.20;74.30
32296;DHT22;18781;51.550;5.418;2022-12-07T08:57:30;7.30;74.30
32296;DHT22;18781;51.550;5.418;2022-12-07T08:59:57;7.30;74.30
32296;DHT22;18781;51.550;5.418;2022-12-07T09:02:23;7.30;74.30
32296;DHT22;18781;51.550;5.418;2022-12-07T09:04:49;7.30;74.30
32296;DHT22;18781;51.550;5.418;2022-12-07T09:07:14;7.30;74.30
32296;DHT22;18781;51.550;5.418;2022-12-07T09:09:40;7.40;74.40
32296;DHT22;18781;51.550;5.418;2022-12-07T09:12:06;7.40;74.30
32296;DHT22;18781;51.550;5.418;2022-12-07T09:14:31;7.40;74.40
32296;DHT22;18781;51.550;5.418;2022-12-07T09:17:06;7.40;74.40
32296;DHT22;18781;51.550;5.418;2022-12-07T09:19:32;7.50;74.50
32296;DHT22;18781;51.550;5.418;2022-12-07T09:21:57;7.50;74.40
32296;DHT22;18781;51.550;5.418;2022-12-07T09:24:23;7.50;74.40
32296;DHT22;18781;51.550;5.418;2022-12-07T09:26:49;7.50;74.30
32296;DHT22;18781;51.550;5.418;2022-12-07T09:29:15;7.50;74.20
32296;DHT22;18781;51.550;5.418;2022-12-07T09:31:40;7.60;74.30
32296;DHT22;18781;51.550;5.418;2022-12-07T09:34:06;7.60;74.20
32296;DHT22;18781;51.550;5.418;2022-12-07T09:36:32;7.60;74.10
32296;DHT22;18781;51.550;5.418;2022-12-07T09:38:58;7.60;74.00
32296;DHT22;18781;51.550;5.418;2022-12-07T09:41:25;7.60;73.90
32296;DHT22;18781;51.550;5.418;2022-12-07T09:43:53;7.70;73.90
32296;DHT22;18781;51.550;5.418;2022-12-07T09:46:22;7.70;74.00
32296;DHT22;18781;51.550;5.418;2022-12-07T09:48:49;7.70;73.90
32296;DHT22;18781;51.550;5.418;2022-12-07T09:53:43;7.70;74.00
32296;DHT22;18781;51.550;5.418;2022-12-07T09:56:14;7.70;74.10
32296;DHT22;18781;51.550;5.418;2022-12-07T09:58:40;7.70;74.10
32296;DHT22;18781;51.550;5.418;2022-12-07T10:03:39;7.80;73.90
32296;DHT22;18781;51.550;5.418;2022-12-07T10:06:06;7.90;74.30
32296;DHT22;18781;51.550;5.418;2022-12-07T10:08:32;7.90;74.30
32296;DHT22;18781;51.550;5.418;2022-12-07T10:10:59;7.90;74.40
32296;DHT22;18781;51.550;5.418;2022-12-07T10:13:41;7.90;74.40
32296;DHT22;18781;51.550;5.418;2022-12-07T10:18:49;8.00;74.90
32296;DHT22;18781;51.550;5.418;2022-12-07T10:21:21;8.10;74.70
32296;DHT22;18781;51.550;5.418;2022-12-07T10:24:04;8.10;74.70
32296;DHT22;18781;51.550;5.418;2022-12-07T10:26:37;8.20;74.90
32296;DHT22;18781;51.550;5.418;2022-12-07T10:29:21;8.20;74.60
32296;DHT22;18781;51.550;5.418;2022-12-07T10:31:54;8.20;74.60
32296;DHT22;18781;51.550;5.418;2022-12-07T10:34:30;8.20;74.20
32296;DHT22;18781;51.550;5.418;2022-12-07T10:39:50;8.30;74.40
32296;DHT22;18781;51.550;5.418;2022-12-07T10:44:43;8.30;74.20
32296;DHT22;18781;51.550;5.418;2022-12-07T10:50:37;8.40;74.50
32296;DHT22;18781;51.550;5.418;2022-12-07T10:58:56;8.60;74.70
32296;DHT22;18781;51.550;5.418;2022-12-07T11:01:34;8.60;74.70
32296;DHT22;18781;51.550;5.418;2022-12-07T11:07:36;8.70;74.50
32296;DHT22;18781;51.550;5.418;2022-12-07T11:18:54;8.90;74.40
32296;DHT22;18781;51.550;5.418;2022-12-07T11:21:30;8.90;74.00
32296;DHT22;18781;51.550;5.418;2022-12-07T11:24:17;8.90;73.90
32296;DHT22;18781;51.550;5.418;2022-12-07T11:32:17;9.10;73.70
32296;DHT22;18781;51.550;5.418;2022-12-07T11:37:32;9.10;73.60
32296;DHT22;18781;51.550;5.418;2022-12-07T11:40:05;9.10;73.50
32296;DHT22;18781;51.550;5.418;2022-12-07T11:42:42;9.20;73.60
32296;DHT22;18781;51.550;5.418;2022-12-07T11:45:26;9.20;73.90
32296;DHT22;18781;51.550;5.418;2022-12-07T11:47:59;9.20;73.50
32296;DHT22;18781;51.550;5.418;2022-12-07T11:50:42;9.30;73.50
32296;DHT22;18781;51.550;5.418;2022-12-07T11:55:54;9.30;73.40
32296;DHT22;18781;51.550;5.418;2022-12-07T12:09:15;9.40;72.90
32296;DHT22;18781;51.550;5.418;2022-12-07T12:17:41;9.50;72.90
32296;DHT22;18781;51.550;5.418;2022-12-07T12:22:48;9.50;73.20
32296;DHT22;18781;51.550;5.418;2022-12-07T12:25:28;9.60;73.00
32296;DHT22;18781;51.550;5.418;2022-12-07T12:27:57;9.60;72.90
32296;DHT22;18781;51.550;5.418;2022-12-07T12:30:34;9.60;72.90
32296;DHT22;18781;51.550;5.418;2022-12-07T12:33:22;9.70;72.70
32296;DHT22;18781;51.550;5.418;2022-12-07T12:44:02;9.80;71.40
32296;DHT22;18781;51.550;5.418;2022-12-07T12:57:34;9.80;71.10
32296;DHT22;18781;51.550;5.418;2022-12-07T13:02:51;9.70;71.20
32296;DHT22;18781;51.550;5.418;2022-12-07T13:05:23;9.70;70.80
32296;DHT22;18781;51.550;5.418;2022-12-07T13:07:53;9.70;71.20
32296;DHT22;18781;51.550;5.418;2022-12-07T13:15:42;9.70;71.20
32296;DHT22;18781;51.550;5.418;2022-12-07T13:20:47;9.80;71.50
32296;DHT22;18781;51.550;5.418;2022-12-07T13:23:16;9.80;71.20
32296;DHT22;18781;51.550;5.418;2022-12-07T13:28:46;9.80;70.90
32296;DHT22;18781;51.550;5.418;2022-12-07T13:31:49;9.80;71.20
32296;DHT22;18781;51.550;5.418;2022-12-07T13:34:37;9.80;70.80
32296;DHT22;18781;51.550;5.418;2022-12-07T13:37:14;9.80;70.70
32296;DHT22;18781;51.550;5.418;2022-12-07T13:39:53;9.80;70.70
32296;DHT22;18781;51.550;5.418;2022-12-07T13:42:28;9.80;70.80
32296;DHT22;18781;51.550;5.418;2022-12-07T13:44:55;9.80;70.80
32296;DHT22;18781;51.550;5.418;2022-12-07T13:47:38;9.80;71.00
32296;DHT22;18781;51.550;5.418;2022-12-07T13:50:31;9.80;70.60
32296;DHT22;18781;51.550;5.418;2022-12-07T13:52:59;9.80;70.70
32296;DHT22;18781;51.550;5.418;2022-12-07T13:55:25;9.80;71.00
32296;DHT22;18781;51.550;5.418;2022-12-07T13:57:52;9.80;71.20
32296;DHT22;18781;51.550;5.418;2022-12-07T14:00:24;9.80;71.30
32296;DHT22;18781;51.550;5.418;2022-12-07T14:03:00;9.80;71.40
32296;DHT22;18781;51.550;5.418;2022-12-07T14:05:31;9.80;71.20
32296;DHT22;18781;51.550;5.418;2022-12-07T14:14:06;9.80;71.20
32296;DHT22;18781;51.550;5.418;2022-12-07T14:16:32;9.80;71.00
32296;DHT22;18781;51.550;5.418;2022-12-07T14:19:00;9.80;70.90
32296;DHT22;18781;51.550;5.418;2022-12-07T14:21:29;9.80;71.10
32296;DHT22;18781;51.550;5.418;2022-12-07T14:24:15;9.80;71.10
32296;DHT22;18781;51.550;5.418;2022-12-07T14:26:42;9.80;71.30
32296;DHT22;18781;51.550;5.418;2022-12-07T14:29:30;9.80;71.50
32296;DHT22;18781;51.550;5.418;2022-12-07T14:31:57;9.80;71.40
32296;DHT22;18781;51.550;5.418;2022-12-07T14:34:24;9.80;71.60
32296;DHT22;18781;51.550;5.418;2022-12-07T14:36:50;9.80;71.10
32296;DHT22;18781;51.550;5.418;2022-12-07T14:39:16;9.80;71.20
32296;DHT22;18781;51.550;5.418;2022-12-07T14:41:42;9.90;71.60
32296;DHT22;18781;51.550;5.418;2022-12-07T14:44:17;9.90;71.80
32296;DHT22;18781;51.550;5.418;2022-12-07T14:46:43;9.90;71.70
32296;DHT22;18781;51.550;5.418;2022-12-07T14:49:08;10.00;71.80
32296;DHT22;18781;51.550;5.418;2022-12-07T14:51:37;10.00;71.80
32296;DHT22;18781;51.550;5.418;2022-12-07T14:54:05;10.10;71.70
32296;DHT22;18781;51.550;5.418;2022-12-07T14:56:31;10.10;71.60
32296;DHT22;18781;51.550;5.418;2022-12-07T14:58:57;10.10;71.60
32296;DHT22;18781;51.550;5.418;2022-12-07T15:01:22;10.20;71.50
32296;DHT22;18781;51.550;5.418;2022-12-07T15:03:48;10.20;71.40
32296;DHT22;18781;51.550;5.418;2022-12-07T15:06:16;10.20;71.40
32296;DHT22;18781;51.550;5.418;2022-12-07T15:08:42;10.30;71.30
32296;DHT22;18781;51.550;5.418;2022-12-07T15:11:19;10.30;71.20
32296;DHT22;18781;51.550;5.418;2022-12-07T15:13:44;10.30;70.80
32296;DHT22;18781;51.550;5.418;2022-12-07T15:16:28;10.30;71.00
32296;DHT22;18781;51.550;5.418;2022-12-07T15:18:54;10.30;70.90
32296;DHT22;18781;51.550;5.418;2022-12-07T15:21:20;10.40;70.90
32296;DHT22;18781;51.550;5.418;2022-12-07T15:23:46;10.40;70.80
32296;DHT22;18781;51.550;5.418;2022-12-07T15:26:12;10.40;70.70
32296;DHT22;18781;51.550;5.418;2022-12-07T15:28:39;10.30;70.50
32296;DHT22;18781;51.550;5.418;2022-12-07T15:31:14;10.30;70.50
32296;DHT22;18781;51.550;5.418;2022-12-07T15:33:40;10.30;70.20
32296;DHT22;18781;51.550;5.418;2022-12-07T15:36:06;10.30;70.90
32296;DHT22;18781;51.550;5.418;2022-12-07T15:38:31;10.30;70.40
32296;DHT22;18781;51.550;5.418;2022-12-07T15:40:57;10.30;70.40
32296;DHT22;18781;51.550;5.418;2022-12-07T15:43:23;10.30;70.30
32296;DHT22;18781;51.550;5.418;2022-12-07T15:46:07;10.30;70.30
32296;DHT22;18781;51.550;5.418;2022-12-07T15:48:33;10.30;70.30
32296;DHT22;18781;51.550;5.418;2022-12-07T15:51:06;10.20;70.10
32296;DHT22;18781;51.550;5.418;2022-12-07T15:53:32;10.20;69.80
32296;DHT22;18781;51.550;5.418;2022-12-07T15:55:58;10.20;70.00
32296;DHT22;18781;51.550;5.418;2022-12-07T15:58:25;10.20;69.90
32296;DHT22;18781;51.550;5.418;2022-12-07T16:00:50;10.20;69.80
32296;DHT22;18781;51.550;5.418;2022-12-07T16:03:16;10.10;69.70
32296;DHT22;18781;51.550;5.418;2022-12-07T16:05:42;10.10;69.70
32296;DHT22;18781;51.550;5.418;2022-12-07T16:08:13;10.10;69.70
32296;DHT22;18781;51.550;5.418;2022-12-07T16:10:39;10.10;69.70
32296;DHT22;18781;51.550;5.418;2022-12-07T16:13:07;10.00;69.70
32296;DHT22;18781;51.550;5.418;2022-12-07T16:15:32;10.00;69.70
32296;DHT22;18781;51.550;5.418;2022-12-07T16:17:58;10.00;69.70
32296;DHT22;18781;51.550;5.418;2022-12-07T16:20:24;10.00;69.60
32296;DHT22;18781;51.550;5.418;2022-12-07T16:22:51;9.90;69.50
32296;DHT22;18781;51.550;5.418;2022-12-07T16:25:18;9.90;69.40
32296;DHT22;18781;51.550;5.418;2022-12-07T16:27:43;9.90;69.50
32296;DHT22;18781;51.550;5.418;2022-12-07T16:30:11;9.90;69.50
32296;DHT22;18781;51.550;5.418;2022-12-07T16:32:37;9.80;69.50
32296;DHT22;18781;51.550;5.418;2022-12-07T16:35:03;9.80;69.50
32296;DHT22;18781;51.550;5.418;2022-12-07T16:37:28;9.80;69.50
32296;DHT22;18781;51.550;5.418;2022-12-07T16:39:54;9.70;69.60
32296;DHT22;18781;51.550;5.418;2022-12-07T16:42:20;9.70;69.60
32296;DHT22;18781;51.550;5.418;2022-12-07T16:44:45;9.70;69.60
32296;DHT22;18781;51.550;5.418;2022-12-07T16:47:11;9.70;69.60
32296;DHT22;18781;51.550;5.418;2022-12-07T16:49:36;9.60;69.50
32296;DHT22;18781;51.550;5.418;2022-12-07T16:52:02;9.60;69.50
32296;DHT22;18781;51.550;5.418;2022-12-07T16:54:27;9.60;69.50
32296;DHT22;18781;51.550;5.418;2022-12-07T16:56:56;9.50;69.60
32296;DHT22;18781;51.550;5.418;2022-12-07T16:59:21;9.50;69.60
32296;DHT22;18781;51.550;5.418;2022-12-07T17:01:47;9.50;69.60
32296;DHT22;18781;51.550;5.418;2022-12-07T17:04:12;9.40;69.60
32296;DHT22;18781;51.550;5.418;2022-12-07T17:06:38;9.40;69.70
32296;DHT22;18781;51.550;5.418;2022-12-07T17:09:04;9.40;69.70
32296;DHT22;18781;51.550;5.418;2022-12-07T17:11:34;9.40;69.70
32296;DHT22;18781;51.550;5.418;2022-12-07T17:14:00;9.30;69.70
32296;DHT22;18781;51.550;5.418;2022-12-07T17:16:45;9.30;69.70
32296;DHT22;18781;51.550;5.418;2022-12-07T17:19:13;9.30;69.70
32296;DHT22;18781;51.550;5.418;2022-12-07T17:21:39;9.30;69.70
32296;DHT22;18781;51.550;5.418;2022-12-07T17:24:07;9.20;69.70
32296;DHT22;18781;51.550;5.418;2022-12-07T17:26:34;9.20;69.80
32296;DHT22;18781;51.550;5.418;2022-12-07T17:29:00;9.20;69.80
32296;DHT22;18781;51.550;5.418;2022-12-07T17:31:25;9.20;69.80
32296;DHT22;18781;51.550;5.418;2022-12-07T17:33:51;9.20;69.80
32296;DHT22;18781;51.550;5.418;2022-12-07T17:36:19;9.20;69.90
32296;DHT22;18781;51.550;5.418;2022-12-07T17:38:46;9.10;69.80
32296;DHT22;18781;51.550;5.418;2022-12-07T17:41:26;9.10;69.90
32296;DHT22;18781;51.550;5.418;2022-12-07T17:44:15;9.10;70.00
32296;DHT22;18781;51.550;5.418;2022-12-07T17:46:41;9.10;70.00
32296;DHT22;18781;51.550;5.418;2022-12-07T17:49:07;9.10;70.10
32296;DHT22;18781;51.550;5.418;2022-12-07T17:51:33;9.10;70.20
32296;DHT22;18781;51.550;5.418;2022-12-07T17:54:17;9.10;70.30
32296;DHT22;18781;51.550;5.418;2022-12-07T17:56:43;9.00;70.20
32296;DHT22;18781;51.550;5.418;2022-12-07T17:59:09;9.00;70.20
32296;DHT22;18781;51.550;5.418;2022-12-07T18:01:35;9.00;70.30
32296;DHT22;18781;51.550;5.418;2022-12-07T18:04:01;9.00;70.20